createdAt,value
2022-11-30T00:00:27.402Z,7.00
2022-11-30T00:02:30.362Z,7.00
2022-11-30T00:04:32.038Z,7.00
2022-11-30T00:06:33.616Z,6.90
2022-11-30T00:08:35.265Z,7.00
2022-11-30T00:10:38.243Z,6.90
2022-11-30T00:12:42.747Z,6.90
2022-11-30T00:14:44.514Z,7.00
2022-11-30T00:16:46.443Z,6.90
2022-11-30T00:18:48.229Z,6.90
2022-11-30T00:20:49.859Z,6.90
2022-11-30T00:22:51.671Z,6.90
2022-11-30T00:24:53.281Z,7.00
2022-11-30T00:26:54.843Z,6.90
2022-11-30T00:28:56.550Z,6.80
2022-11-30T00:30:59.138Z,6.90
2022-11-30T00:33:00.802Z,6.90
2022-11-30T00:35:02.497Z,7.00
2022-11-30T00:37:04.099Z,7.00
2022-11-30T00:39:07.614Z,7.00
2022-11-30T00:41:09.730Z,7.00
2022-11-30T00:43:11.324Z,6.90
2022-11-30T00:45:12.997Z,6.90
2022-11-30T00:47:14.607Z,6.90
2022-11-30T00:49:16.142Z,6.90
2022-11-30T00:51:18.607Z,6.90
2022-11-30T00:53:20.997Z,6.90
2022-11-30T00:55:22.571Z,7.00
2022-11-30T00:57:24.168Z,6.90
2022-11-30T00:59:25.852Z,6.90
2022-11-30T01:01:27.533Z,6.90
2022-11-30T01:03:29.335Z,6.80
2022-11-30T01:05:32.866Z,6.90
2022-11-30T01:07:34.433Z,6.90
2022-11-30T01:09:36.003Z,6.90
2022-11-30T01:11:37.609Z,6.90
2022-11-30T01:13:39.169Z,6.90
2022-11-30T01:15:42.191Z,6.90
2022-11-30T01:17:43.786Z,6.90
2022-11-30T01:19:45.359Z,6.90
2022-11-30T01:21:46.990Z,6.90
2022-11-30T01:23:48.713Z,6.90
2022-11-30T01:25:53.769Z,6.90
2022-11-30T01:27:55.441Z,6.90
2022-11-30T01:29:57.158Z,6.90
2022-11-30T01:31:58.718Z,6.90
2022-11-30T01:34:01.439Z,6.90
2022-11-30T01:36:07.366Z,6.80
2022-11-30T01:38:08.968Z,6.80
2022-11-30T01:40:10.927Z,6.90
2022-11-30T01:42:16.985Z,6.90
2022-11-30T01:44:20.335Z,6.90
2022-11-30T01:46:28.311Z,6.80
2022-11-30T01:48:29.976Z,6.80
2022-11-30T01:50:34.768Z,6.80
2022-11-30T01:52:38.523Z,6.80
2022-11-30T01:54:46.384Z,6.90
2022-11-30T01:56:50.725Z,6.90
2022-11-30T01:58:52.365Z,6.90
2022-11-30T02:00:54.041Z,6.90
2022-11-30T02:02:59.703Z,6.90
2022-11-30T02:05:01.433Z,6.90
2022-11-30T02:07:04.716Z,6.90
2022-11-30T02:09:06.280Z,6.80
2022-11-30T02:11:11.065Z,6.90
2022-11-30T02:13:12.680Z,6.80
2022-11-30T02:15:20.652Z,6.80
2022-11-30T02:17:34.940Z,6.80
2022-11-30T02:19:36.459Z,6.80
2022-11-30T02:21:58.277Z,6.80
2022-11-30T02:23:59.799Z,6.80
2022-11-30T02:26:09.142Z,6.80
2022-11-30T02:28:29.629Z,6.90
2022-11-30T02:30:33.621Z,6.80
2022-11-30T02:32:37.060Z,6.80
2022-11-30T02:34:40.521Z,6.80
2022-11-30T02:36:43.069Z,6.80
2022-11-30T02:38:44.857Z,6.80
2022-11-30T02:40:46.415Z,6.80
2022-11-30T02:42:49.924Z,6.80
2022-11-30T02:44:52.441Z,6.70
2022-11-30T02:47:04.987Z,6.80
2022-11-30T02:49:13.951Z,6.80
2022-11-30T02:51:18.633Z,6.80
2022-11-30T02:53:20.870Z,6.80
2022-11-30T02:55:22.973Z,6.80
2022-11-30T02:57:27.614Z,6.80
2022-11-30T02:59:29.398Z,6.80
2022-11-30T03:01:31.044Z,6.80
2022-11-30T03:03:32.649Z,6.80
2022-11-30T03:05:34.391Z,6.80
2022-11-30T03:07:36.270Z,6.80
2022-11-30T03:09:37.993Z,6.80
2022-11-30T03:11:39.717Z,6.70
2022-11-30T03:13:41.324Z,6.80
2022-11-30T03:15:42.957Z,6.80
2022-11-30T03:17:44.594Z,6.70
2022-11-30T03:19:46.200Z,6.80
2022-11-30T03:21:47.725Z,6.70
2022-11-30T03:23:49.304Z,6.70
2022-11-30T03:25:50.840Z,6.70
2022-11-30T03:27:52.386Z,6.70
2022-11-30T03:29:54.043Z,6.70
2022-11-30T03:31:55.599Z,6.60
2022-11-30T03:33:57.376Z,6.70
2022-11-30T03:36:02.657Z,6.60
2022-11-30T03:38:04.213Z,6.60
2022-11-30T03:40:06.100Z,6.60
2022-11-30T03:42:07.782Z,6.60
2022-11-30T03:44:09.354Z,6.70
2022-11-30T03:46:11.204Z,6.70
2022-11-30T03:48:12.806Z,6.70
2022-11-30T03:50:14.595Z,6.60
2022-11-30T03:52:16.123Z,6.70
2022-11-30T03:54:17.634Z,6.80
2022-11-30T03:56:19.242Z,6.80
2022-11-30T03:58:21.038Z,6.80
2022-11-30T04:00:22.613Z,6.80
2022-11-30T04:02:24.231Z,6.70
2022-11-30T04:04:25.784Z,6.80
2022-11-30T04:06:27.306Z,6.80
2022-11-30T04:08:29.294Z,6.80
2022-11-30T04:10:30.875Z,6.80
2022-11-30T04:12:32.624Z,6.80
2022-11-30T04:14:34.190Z,6.80
2022-11-30T04:16:35.921Z,6.80
2022-11-30T04:18:37.976Z,6.80
2022-11-30T04:20:40.741Z,6.80
2022-11-30T04:22:42.442Z,6.80
2022-11-30T04:24:43.974Z,6.70
2022-11-30T04:26:46.070Z,6.70
2022-11-30T04:28:47.650Z,6.70
2022-11-30T04:30:49.254Z,6.80
2022-11-30T04:32:50.822Z,6.80
2022-11-30T04:34:52.378Z,6.80
2022-11-30T04:36:59.950Z,6.80
2022-11-30T04:39:01.983Z,6.80
2022-11-30T04:41:07.920Z,6.80
2022-11-30T04:43:11.462Z,6.80
2022-11-30T04:45:13.469Z,6.80
2022-11-30T04:47:15.080Z,6.80
2022-11-30T04:49:16.656Z,6.80
2022-11-30T04:51:18.243Z,6.80
2022-11-30T04:53:19.812Z,6.70
2022-11-30T04:55:21.397Z,6.70
2022-11-30T04:57:23.113Z,6.80
2022-11-30T04:59:24.649Z,6.70
2022-11-30T05:01:26.332Z,6.70
2022-11-30T05:03:27.957Z,6.70
2022-11-30T05:05:29.535Z,6.70
2022-11-30T05:07:31.141Z,6.70
2022-11-30T05:09:32.814Z,6.70
2022-11-30T05:11:34.467Z,6.80
2022-11-30T05:13:36.043Z,6.80
2022-11-30T05:15:37.639Z,6.70
2022-11-30T05:17:39.312Z,6.70
2022-11-30T05:19:40.851Z,6.70
2022-11-30T05:21:45.745Z,6.70
2022-11-30T05:23:48.712Z,6.70
2022-11-30T05:25:50.345Z,6.70
2022-11-30T05:27:51.940Z,6.80
2022-11-30T05:29:53.516Z,6.80
2022-11-30T05:31:55.119Z,6.70
2022-11-30T05:33:56.691Z,6.70
2022-11-30T05:35:58.278Z,6.70
2022-11-30T05:37:59.954Z,6.70
2022-11-30T05:40:01.534Z,6.70
2022-11-30T05:42:03.381Z,6.70
2022-11-30T05:44:05.100Z,6.70
2022-11-30T05:46:08.063Z,6.70
2022-11-30T05:48:09.658Z,6.70
2022-11-30T05:50:11.391Z,6.70
2022-11-30T05:52:12.919Z,6.70
2022-11-30T05:54:14.486Z,6.70
2022-11-30T05:56:20.261Z,6.80
2022-11-30T05:58:21.855Z,6.70
2022-11-30T06:00:23.434Z,6.70
2022-11-30T06:02:28.160Z,6.70
2022-11-30T06:04:30.233Z,6.70
2022-11-30T06:06:32.194Z,6.70
2022-11-30T06:08:33.787Z,6.70
2022-11-30T06:10:36.512Z,6.70
2022-11-30T06:12:38.055Z,6.70
2022-11-30T06:14:39.660Z,6.70
2022-11-30T06:16:41.496Z,6.60
2022-11-30T06:18:46.053Z,6.50
2022-11-30T06:20:47.681Z,6.50
2022-11-30T06:22:49.319Z,6.50
2022-11-30T06:24:50.919Z,6.50
2022-11-30T06:26:52.504Z,6.40
2022-11-30T06:28:54.083Z,6.40
2022-11-30T06:30:59.693Z,6.50
2022-11-30T06:33:01.296Z,6.40
2022-11-30T06:35:02.989Z,6.50
2022-11-30T06:37:04.527Z,6.40
2022-11-30T06:39:06.177Z,6.40
2022-11-30T06:41:09.030Z,6.40
2022-11-30T06:43:10.732Z,6.50
2022-11-30T06:45:12.397Z,6.50
2022-11-30T06:47:13.974Z,6.40
2022-11-30T06:49:15.785Z,6.40
2022-11-30T06:51:17.669Z,6.30
2022-11-30T06:53:19.257Z,6.30
2022-11-30T06:55:20.812Z,6.30
2022-11-30T06:57:25.964Z,6.30
2022-11-30T06:59:27.604Z,6.30
2022-11-30T07:01:29.268Z,6.30
2022-11-30T07:03:30.886Z,6.30
2022-11-30T07:05:40.979Z,6.30
2022-11-30T07:07:42.775Z,6.30
2022-11-30T07:09:44.341Z,6.30
2022-11-30T07:11:45.888Z,6.30
2022-11-30T07:13:47.495Z,6.30
2022-11-30T07:15:49.080Z,6.40
2022-11-30T07:17:50.723Z,6.40
2022-11-30T07:19:52.324Z,6.40
2022-11-30T07:21:53.912Z,6.40
2022-11-30T07:24:13.926Z,6.50
2022-11-30T07:26:15.455Z,6.50
2022-11-30T07:28:17.048Z,6.60
2022-11-30T07:30:18.882Z,6.60
2022-11-30T07:32:20.621Z,6.60
2022-11-30T07:34:22.278Z,6.70
2022-11-30T07:36:25.588Z,6.70
2022-11-30T07:38:27.243Z,6.70
2022-11-30T07:40:28.991Z,6.70
2022-11-30T07:42:30.741Z,6.70
2022-11-30T07:44:32.950Z,6.70
2022-11-30T07:46:36.029Z,6.70
2022-11-30T07:48:37.682Z,6.70
2022-11-30T07:50:39.294Z,6.70
2022-11-30T07:52:41.114Z,6.70
2022-11-30T07:54:44.751Z,6.70
2022-11-30T07:56:46.697Z,6.70
2022-11-30T07:58:49.147Z,6.70
2022-11-30T08:00:51.164Z,6.70
2022-11-30T08:02:52.900Z,6.80
2022-11-30T08:04:57.887Z,6.80
2022-11-30T08:06:59.514Z,6.80
2022-11-30T08:09:02.595Z,6.80
2022-11-30T08:11:04.830Z,6.80
2022-11-30T08:13:06.426Z,6.90
2022-11-30T08:15:28.872Z,6.80
2022-11-30T08:17:32.588Z,6.80
2022-11-30T08:19:34.193Z,6.70
2022-11-30T08:21:35.799Z,6.80
2022-11-30T08:23:38.630Z,6.80
2022-11-30T08:25:40.289Z,6.80
2022-11-30T08:27:41.823Z,6.80
2022-11-30T08:29:43.407Z,6.80
2022-11-30T08:31:45.060Z,6.90
2022-11-30T08:33:46.972Z,6.90
2022-11-30T08:35:48.651Z,7.00
2022-11-30T08:37:50.240Z,6.90
2022-11-30T08:39:51.849Z,6.90
2022-11-30T08:41:53.699Z,6.90
2022-11-30T08:43:55.337Z,6.90
2022-11-30T08:45:57.461Z,6.80
2022-11-30T08:47:59.217Z,6.90
2022-11-30T08:50:01.495Z,6.90
2022-11-30T08:52:18.946Z,6.90
2022-11-30T08:54:20.773Z,7.00
2022-11-30T08:56:25.276Z,7.00
2022-11-30T08:58:27.750Z,7.00
2022-11-30T09:00:29.306Z,7.10
2022-11-30T09:02:30.904Z,7.10
2022-11-30T09:04:32.571Z,7.10
2022-11-30T09:06:34.133Z,7.10
2022-11-30T09:08:39.540Z,7.10
2022-11-30T09:10:42.538Z,7.00
2022-11-30T09:12:44.292Z,7.10
2022-11-30T09:14:52.365Z,7.10
2022-11-30T09:16:57.603Z,7.10
2022-11-30T09:18:59.274Z,7.10
2022-11-30T09:21:01.903Z,7.10
2022-11-30T09:23:03.901Z,7.10
2022-11-30T09:25:05.620Z,7.00
2022-11-30T09:27:07.205Z,7.10
2022-11-30T09:29:08.801Z,7.10
2022-11-30T09:31:14.665Z,7.10
2022-11-30T09:33:16.491Z,7.10
2022-11-30T09:35:18.077Z,7.10
2022-11-30T09:37:19.810Z,7.10
2022-11-30T09:39:21.506Z,7.20
2022-11-30T09:41:38.439Z,7.20
2022-11-30T09:43:50.683Z,7.30
2022-11-30T09:45:55.585Z,7.40
2022-11-30T09:48:15.657Z,7.40
2022-11-30T09:50:19.032Z,7.40
2022-11-30T09:52:23.313Z,7.40
2022-11-30T09:54:35.276Z,7.50
2022-11-30T09:56:39.080Z,7.50
2022-11-30T09:58:47.315Z,7.50
2022-11-30T10:00:48.895Z,7.40
2022-11-30T10:02:51.246Z,7.50
2022-11-30T10:04:52.987Z,7.40
2022-11-30T10:07:09.703Z,7.40
2022-11-30T10:09:23.587Z,7.50
2022-11-30T10:11:34.408Z,7.60
2022-11-30T10:13:36.069Z,7.60
2022-11-30T10:15:56.293Z,7.60
2022-11-30T10:18:01.970Z,7.60
2022-11-30T10:20:03.609Z,7.60
2022-11-30T10:22:05.144Z,7.60
2022-11-30T10:24:06.749Z,7.60
2022-11-30T10:26:15.745Z,7.60
2022-11-30T10:28:45.574Z,7.70
2022-11-30T10:30:40.813Z,7.70
2022-11-30T10:32:45.001Z,7.60
2022-11-30T10:34:48.835Z,7.60
2022-11-30T10:37:03.231Z,7.60
2022-11-30T10:39:06.834Z,7.60
2022-11-30T10:41:19.731Z,7.70
2022-11-30T10:43:25.281Z,7.60
2022-11-30T10:45:28.633Z,7.60
2022-11-30T10:47:34.032Z,7.60
2022-11-30T10:49:37.137Z,7.50
2022-11-30T10:51:39.604Z,7.60
2022-11-30T10:53:41.171Z,7.60
2022-11-30T10:55:44.277Z,7.60
2022-11-30T10:57:46.927Z,7.60
2022-11-30T10:59:55.436Z,7.70
2022-11-30T11:01:57.223Z,7.60
2022-11-30T11:04:08.337Z,7.60
2022-11-30T11:06:13.312Z,7.50
2022-11-30T11:08:24.607Z,7.60
2022-11-30T11:10:33.031Z,7.60
2022-11-30T11:12:34.587Z,7.60
2022-11-30T11:14:38.215Z,7.70
2022-11-30T11:17:09.145Z,7.70
2022-11-30T11:19:22.258Z,7.70
2022-11-30T11:21:24.513Z,7.70
2022-11-30T11:23:42.016Z,7.70
2022-11-30T11:25:43.634Z,7.70
2022-11-30T11:27:51.196Z,7.80
2022-11-30T11:30:05.294Z,7.80
2022-11-30T11:32:09.763Z,7.80
2022-11-30T11:34:51.000Z,7.80
2022-11-30T11:37:14.197Z,7.80
2022-11-30T11:39:26.004Z,7.80
2022-11-30T11:41:29.313Z,7.80
2022-11-30T11:43:40.938Z,7.90
2022-11-30T11:45:50.173Z,7.90
2022-11-30T11:47:59.638Z,7.90
2022-11-30T11:50:13.179Z,7.90
2022-11-30T11:52:18.307Z,7.80
2022-11-30T11:54:22.852Z,7.80
2022-11-30T11:56:24.365Z,7.80
2022-11-30T11:58:41.975Z,7.80
2022-11-30T12:00:44.028Z,7.80
2022-11-30T12:02:48.747Z,7.80
2022-11-30T12:04:50.520Z,7.90
2022-11-30T12:06:54.091Z,7.90
2022-11-30T12:09:07.650Z,7.90
2022-11-30T12:11:22.321Z,7.90
2022-11-30T12:13:27.429Z,7.90
2022-11-30T12:15:36.556Z,7.90
2022-11-30T12:17:38.214Z,7.80
2022-11-30T12:19:42.600Z,7.80
2022-11-30T12:21:47.252Z,7.80
2022-11-30T12:24:07.793Z,7.80
2022-11-30T12:26:15.850Z,7.80
2022-11-30T12:28:17.511Z,7.80
2022-11-30T12:30:25.147Z,7.80
2022-11-30T12:32:41.019Z,7.80
2022-11-30T12:34:48.630Z,7.80
2022-11-30T12:36:50.269Z,7.80
2022-11-30T12:38:58.990Z,7.80
2022-11-30T12:41:22.836Z,7.80
2022-11-30T12:43:24.404Z,7.80
2022-11-30T12:45:36.234Z,7.80
2022-11-30T12:47:37.974Z,7.70
2022-11-30T12:50:03.143Z,7.80
2022-11-30T12:52:10.628Z,7.70
2022-11-30T12:54:18.620Z,7.80
2022-11-30T12:56:23.189Z,7.80
2022-11-30T12:58:24.867Z,7.80
2022-11-30T13:00:29.221Z,7.80
2022-11-30T13:02:33.925Z,7.80
2022-11-30T13:04:49.831Z,7.80
2022-11-30T13:06:59.229Z,7.70
2022-11-30T13:09:06.452Z,7.80
2022-11-30T13:11:12.265Z,7.70
2022-11-30T13:13:19.003Z,7.70
2022-11-30T13:15:22.719Z,7.70
2022-11-30T13:17:24.478Z,7.70
2022-11-30T13:19:26.113Z,7.70
2022-11-30T13:21:34.514Z,7.70
2022-11-30T13:23:47.859Z,7.70
2022-11-30T13:28:11.001Z,7.60
2022-11-30T13:30:21.085Z,7.60
2022-11-30T13:32:56.101Z,7.60
2022-11-30T13:34:44.637Z,7.60
2022-11-30T13:36:46.483Z,7.70
2022-11-30T13:39:07.737Z,7.60
2022-11-30T13:41:09.504Z,7.60
2022-11-30T13:43:17.295Z,7.60
2022-11-30T13:45:24.679Z,7.50
2022-11-30T13:47:27.903Z,7.60
2022-11-30T13:49:34.548Z,7.60
2022-11-30T13:51:37.958Z,7.60
2022-11-30T13:53:40.530Z,7.50
2022-11-30T13:55:43.213Z,7.50
2022-11-30T13:57:44.822Z,7.50
2022-11-30T13:59:47.662Z,7.60
2022-11-30T14:01:53.817Z,7.50
2022-11-30T14:04:13.947Z,7.50
2022-11-30T14:06:33.989Z,7.50
2022-11-30T14:08:38.879Z,7.50
2022-11-30T14:10:53.589Z,7.50
2022-11-30T14:13:04.502Z,7.50
2022-11-30T14:15:24.934Z,7.40
2022-11-30T14:17:27.856Z,7.40
2022-11-30T14:19:30.141Z,7.40
2022-11-30T14:21:32.871Z,7.40
2022-11-30T14:23:48.807Z,7.40
2022-11-30T14:25:51.684Z,7.40
2022-11-30T14:27:55.217Z,7.30
2022-11-30T14:30:01.029Z,7.30
2022-11-30T14:32:15.953Z,7.30
2022-11-30T14:34:19.901Z,7.30
2022-11-30T14:36:22.899Z,7.30
2022-11-30T14:38:25.871Z,7.30
2022-11-30T14:40:30.249Z,7.30
2022-11-30T14:42:32.987Z,7.30
2022-11-30T14:44:39.892Z,7.30
2022-11-30T14:46:41.843Z,7.20
2022-11-30T14:48:45.372Z,7.20
2022-11-30T14:50:48.996Z,7.20
2022-11-30T14:53:09.347Z,7.30
2022-11-30T14:55:11.010Z,7.30
2022-11-30T14:57:18.859Z,7.30
2022-11-30T14:59:47.563Z,7.20
2022-11-30T15:01:54.900Z,7.30
2022-11-30T15:03:58.387Z,7.20
2022-11-30T15:06:01.951Z,7.20
2022-11-30T15:08:03.675Z,7.30
2022-11-30T15:10:06.540Z,7.30
2022-11-30T15:12:08.357Z,7.20
2022-11-30T15:14:10.648Z,7.20
2022-11-30T15:16:18.336Z,7.20
2022-11-30T15:18:20.975Z,7.20
2022-11-30T15:20:25.910Z,7.20
2022-11-30T15:22:33.508Z,7.10
2022-11-30T15:24:35.173Z,7.10
2022-11-30T15:26:38.434Z,7.10
2022-11-30T15:28:42.727Z,7.10
2022-11-30T15:30:47.079Z,7.10
2022-11-30T15:32:52.279Z,7.10
2022-11-30T15:34:57.072Z,7.10
2022-11-30T15:36:59.449Z,7.10
2022-11-30T15:39:03.259Z,7.10
2022-11-30T15:41:06.994Z,7.00
2022-11-30T15:43:15.555Z,6.90
2022-11-30T15:45:20.847Z,7.00
2022-11-30T15:47:22.446Z,7.00
2022-11-30T15:49:25.724Z,7.00
2022-11-30T15:51:36.612Z,7.00
2022-11-30T15:53:47.306Z,7.00
2022-11-30T15:55:50.673Z,7.00
2022-11-30T15:58:02.142Z,7.00
2022-11-30T16:00:15.669Z,7.00
2022-11-30T16:02:24.932Z,7.00
2022-11-30T16:04:26.868Z,7.10
2022-11-30T16:06:36.077Z,7.10
2022-11-30T16:08:45.883Z,7.00
2022-11-30T16:10:47.770Z,7.00
2022-11-30T16:12:50.454Z,7.00
2022-11-30T16:14:52.083Z,7.00
2022-11-30T16:16:55.223Z,7.00
2022-11-30T16:18:56.935Z,7.00
2022-11-30T16:20:59.639Z,7.00
2022-11-30T16:23:05.782Z,7.00
2022-11-30T16:25:12.174Z,7.00
2022-11-30T16:27:17.891Z,7.00
2022-11-30T16:29:19.923Z,6.90
2022-11-30T16:31:21.581Z,6.90
2022-11-30T16:33:25.050Z,6.90
2022-11-30T16:35:49.883Z,6.90
2022-11-30T16:37:51.921Z,7.00
2022-11-30T16:39:53.470Z,7.10
2022-11-30T16:41:55.051Z,7.20
2022-11-30T16:43:57.731Z,7.20
2022-11-30T16:45:59.583Z,7.20
2022-11-30T16:48:01.253Z,7.10
2022-11-30T16:50:02.882Z,7.00
2022-11-30T16:52:04.544Z,7.00
2022-11-30T16:54:06.131Z,7.00
2022-11-30T16:56:10.030Z,7.00
2022-11-30T16:58:11.674Z,6.90
2022-11-30T17:00:14.885Z,6.90
2022-11-30T17:02:19.696Z,6.90
2022-11-30T17:04:26.286Z,6.90
2022-11-30T17:06:28.021Z,6.90
2022-11-30T17:08:29.594Z,6.90
2022-11-30T17:10:31.282Z,6.90
2022-11-30T17:12:33.020Z,6.90
2022-11-30T17:14:34.721Z,6.90
2022-11-30T17:16:36.471Z,6.90
2022-11-30T17:18:38.199Z,7.00
2022-11-30T17:20:39.948Z,6.90
2022-11-30T17:22:41.970Z,6.90
2022-11-30T17:24:43.721Z,6.90
2022-11-30T17:26:45.461Z,6.90
2022-11-30T17:28:47.172Z,6.90
2022-11-30T17:30:48.818Z,6.90
2022-11-30T17:32:53.519Z,6.80
2022-11-30T17:34:55.100Z,6.90
2022-11-30T17:36:57.010Z,6.90
2022-11-30T17:38:58.635Z,6.90
2022-11-30T17:41:00.629Z,6.90
2022-11-30T17:43:02.243Z,6.90
2022-11-30T17:45:03.993Z,6.90
2022-11-30T17:47:05.624Z,6.90
2022-11-30T17:49:07.473Z,6.90
2022-11-30T17:51:09.706Z,6.90
2022-11-30T17:53:16.796Z,6.80
2022-11-30T17:55:19.795Z,6.90
2022-11-30T17:57:21.475Z,6.80
2022-11-30T17:59:23.104Z,6.90
2022-11-30T18:01:26.345Z,6.80
2022-11-30T18:03:28.139Z,6.80
2022-11-30T18:05:31.409Z,6.80
2022-11-30T18:07:33.152Z,6.80
2022-11-30T18:09:39.390Z,6.90
2022-11-30T18:11:42.491Z,6.80
2022-11-30T18:13:44.274Z,6.80
2022-11-30T18:15:45.820Z,6.80
2022-11-30T18:17:47.546Z,6.80
2022-11-30T18:19:49.295Z,6.90
2022-11-30T18:21:50.964Z,6.90
2022-11-30T18:23:53.565Z,6.80
2022-11-30T18:25:55.237Z,6.70
2022-11-30T18:27:56.931Z,6.70
2022-11-30T18:29:58.525Z,6.60
2022-11-30T18:32:00.225Z,6.60
2022-11-30T18:34:03.780Z,6.60
2022-11-30T18:36:08.874Z,6.60
2022-11-30T18:38:10.738Z,6.60
2022-11-30T18:40:12.865Z,6.60
2022-11-30T18:42:14.601Z,6.60
2022-11-30T18:44:16.412Z,6.50
2022-11-30T18:46:18.068Z,6.50
2022-11-30T18:48:19.746Z,6.50
2022-11-30T18:50:21.474Z,6.50
2022-11-30T18:52:23.197Z,6.50
2022-11-30T18:54:25.758Z,6.50
2022-11-30T18:56:28.512Z,6.50
2022-11-30T18:58:30.290Z,6.50
2022-11-30T19:00:31.967Z,6.50
2022-11-30T19:02:34.469Z,6.50
2022-11-30T19:04:36.183Z,6.60
2022-11-30T19:06:38.615Z,6.50
2022-11-30T19:08:40.968Z,6.60
2022-11-30T19:10:42.795Z,6.50
2022-11-30T19:12:45.450Z,6.50
2022-11-30T19:14:48.833Z,6.50
2022-11-30T19:16:50.749Z,6.50
2022-11-30T19:18:53.080Z,6.50
2022-11-30T19:20:54.769Z,6.50
2022-11-30T19:22:56.490Z,6.50
2022-11-30T19:24:58.191Z,6.40
2022-11-30T19:27:00.040Z,6.50
2022-11-30T19:29:01.761Z,6.50
2022-11-30T19:31:11.178Z,6.40
2022-11-30T19:33:14.218Z,6.50
2022-11-30T19:35:15.967Z,6.50
2022-11-30T19:37:17.559Z,6.40
2022-11-30T19:39:19.328Z,6.40
2022-11-30T19:41:21.205Z,6.40
2022-11-30T19:43:22.916Z,6.40
2022-11-30T19:45:27.019Z,6.40
2022-11-30T19:47:31.009Z,6.30
2022-11-30T19:49:32.701Z,6.20
2022-11-30T19:51:34.827Z,6.20
2022-11-30T19:53:37.109Z,6.10
2022-11-30T19:55:41.335Z,6.10
2022-11-30T19:57:42.919Z,6.00
2022-11-30T19:59:44.724Z,5.90
2022-11-30T20:01:46.489Z,5.90
2022-11-30T20:03:49.041Z,5.90
2022-11-30T20:05:50.893Z,5.90
2022-11-30T20:07:53.632Z,6.00
2022-11-30T20:09:55.475Z,5.90
2022-11-30T20:11:57.078Z,6.00
2022-11-30T20:14:00.189Z,5.90
2022-11-30T20:16:15.347Z,5.70
2022-11-30T20:18:25.714Z,5.70
2022-11-30T20:20:27.763Z,5.70
2022-11-30T20:22:31.854Z,5.80
2022-11-30T20:24:35.953Z,5.80
2022-11-30T20:26:42.842Z,5.80
2022-11-30T20:28:45.174Z,5.90
2022-11-30T20:30:49.742Z,5.90
2022-11-30T20:32:51.476Z,5.90
2022-11-30T20:34:53.148Z,5.80
2022-11-30T20:36:54.955Z,5.90
2022-11-30T20:38:57.821Z,5.90
2022-11-30T20:41:02.048Z,5.60
2022-11-30T20:43:03.730Z,5.60
2022-11-30T20:45:05.628Z,5.60
2022-11-30T20:47:07.374Z,5.50
2022-11-30T20:49:13.770Z,5.60
2022-11-30T20:51:32.858Z,5.70
2022-11-30T20:53:35.052Z,5.70
2022-11-30T20:55:36.907Z,5.70
2022-11-30T20:57:38.583Z,5.70
2022-11-30T20:59:42.533Z,5.70
2022-11-30T21:01:45.308Z,5.70
2022-11-30T21:03:47.664Z,5.70
2022-11-30T21:05:51.355Z,5.70
2022-11-30T21:07:53.102Z,5.70
2022-11-30T21:09:55.192Z,5.60
2022-11-30T21:11:57.138Z,5.60
2022-11-30T21:13:59.275Z,5.60
2022-11-30T21:16:03.245Z,5.60
2022-11-30T21:18:05.163Z,5.40
2022-11-30T21:20:07.609Z,5.40
2022-11-30T21:22:09.387Z,5.40
2022-11-30T21:24:14.012Z,5.30
2022-11-30T21:26:15.804Z,5.30
2022-11-30T21:28:18.442Z,5.20
2022-11-30T21:30:20.177Z,5.20
2022-11-30T21:32:21.846Z,5.20
2022-11-30T21:34:23.544Z,5.20
2022-11-30T21:36:25.117Z,5.20
2022-11-30T21:38:26.728Z,5.20
2022-11-30T21:40:29.010Z,5.10
2022-11-30T21:42:30.751Z,5.20
2022-11-30T21:44:34.894Z,5.20
2022-11-30T21:46:36.856Z,5.00
2022-11-30T21:48:39.068Z,5.00
2022-11-30T21:50:40.838Z,5.10
2022-11-30T21:52:42.528Z,5.10
2022-11-30T21:54:44.226Z,5.20
2022-11-30T21:56:46.095Z,5.10
2022-11-30T21:58:48.999Z,5.10
2022-11-30T22:00:54.827Z,5.10
2022-11-30T22:02:56.784Z,5.20
2022-11-30T22:04:58.378Z,5.20
2022-11-30T22:07:00.042Z,5.20
2022-11-30T22:09:07.537Z,5.00
2022-11-30T22:11:13.211Z,5.00
2022-11-30T22:13:14.848Z,4.90
2022-11-30T22:15:16.560Z,4.90
2022-11-30T22:17:18.264Z,5.00
2022-11-30T22:19:19.935Z,5.10
2022-11-30T22:21:27.497Z,5.10
2022-11-30T22:23:29.249Z,5.00
2022-11-30T22:25:30.880Z,5.10
2022-11-30T22:27:36.016Z,5.20
2022-11-30T22:29:37.559Z,5.10
2022-11-30T22:31:40.507Z,5.10
2022-11-30T22:33:43.259Z,5.10
2022-11-30T22:35:44.945Z,5.10
2022-11-30T22:37:46.676Z,5.10
2022-11-30T22:39:50.946Z,5.10
2022-11-30T22:41:56.030Z,5.10
2022-11-30T22:43:58.676Z,5.10
2022-11-30T22:46:07.320Z,5.00
2022-11-30T22:48:09.021Z,5.00
2022-11-30T22:50:11.074Z,5.00
2022-11-30T22:52:12.765Z,5.00
2022-11-30T22:54:14.561Z,4.90
2022-11-30T22:56:19.551Z,4.90
2022-11-30T22:58:21.357Z,4.90
2022-11-30T23:00:23.173Z,5.00
2022-11-30T23:02:24.909Z,5.00
2022-11-30T23:04:29.301Z,4.90
2022-11-30T23:06:31.112Z,4.80
2022-11-30T23:08:33.343Z,4.80
2022-11-30T23:10:34.933Z,4.90
2022-11-30T23:12:58.377Z,4.70
2022-11-30T23:14:58.290Z,4.90
2022-11-30T23:16:59.956Z,5.00
2022-11-30T23:19:01.594Z,4.90
2022-11-30T23:21:11.195Z,4.80
2022-11-30T23:23:13.194Z,4.80
2022-11-30T23:25:14.907Z,4.80
2022-11-30T23:27:16.525Z,4.80
2022-11-30T23:29:18.686Z,4.70
2022-11-30T23:31:33.775Z,4.80
2022-11-30T23:33:37.961Z,4.80
2022-11-30T23:35:43.204Z,4.70
2022-11-30T23:37:44.848Z,4.80
2022-11-30T23:39:46.626Z,4.90
2022-11-30T23:41:48.394Z,4.80
2022-11-30T23:43:49.973Z,4.80
2022-11-30T23:45:51.623Z,4.80
2022-11-30T23:47:53.249Z,4.80
2022-11-30T23:49:54.938Z,4.90
2022-11-30T23:51:58.341Z,4.90
2022-11-30T23:53:59.972Z,4.90
2022-11-30T23:56:02.710Z,4.90
2022-11-30T23:58:04.288Z,4.80
